Hlavní strana
METAR-TAF:

METAR-TAF

Letiště :

Muscle Shoals, Alabama, Spojené státy americké

zeměpisná šířka: 34-44-38N, zeměpisná délka: 087-35-58W, výška: 167 m

Aktuální stav počasí

Zpráva byla vytvořena před 47 minutami, v 10:53 UTC
Bezvětří
Teplota 1°C
Vlhkost vzduchu 69%
Tlak 1028 hPa
Viditelnost: 16.1 km
Jasno

METAR: KMSL 071053Z AUTO 00000KT 10SM CLR 01/M04 A3037 RMK AO2 SLP283 T00061044

Čas: 05:40 (11:40 UTC)

Předpověď počasí

Zpráva byla vytvořena před 6 hodinami a 20 minutami, v 05:20 UTC
Předpověď platná od 07 v 06 UTC do 08 v 06 UTC
Severoseverovýchodní vítr 4 kt
Viditelnost: 10 km
Jasno
Od 07 v 1600 UTC
Východní vítr 7 kt
Viditelnost: 10 km
Jasno
Od 08 v 0000 UTC
Severní vítr kt
Viditelnost: 10 km
Jasno

TAF: KMSL 070520Z 0706/0806 02004KT P6SM SKC FM071600 08007KT P6SM SKC FM080000 00000KT P6SM SKC

Stav a předpovědi počasí z více než 4 000 letišť (zprávy METAR a TAF).

Červené a žluté tečky na mapě představují dostupné meteorologické stanice.

Když kurzor umístíte na tečku, zobrazí se název stanice.

Pak kliknutím zobrazíte stav a předpověď počasí.

Chcete-li změnit mapu, kliknutím na zelené tlačítko se znaménkem +mapu přiblížíte, kliknutím na zelené tlačítko se znaménkem – mapu oddálíte a kliknutím na zelené šipky přejdete na sousední mapy.


METAR-TAF: